sensor_id;sensor_type;location;lat;lon;timestamp;P1;durP1;ratioP1;P2;durP2;ratioP2
55288;SDS011;41154;45.394;5.734;2023-02-01T00:02:24;13.75;;;6.68;;
55288;SDS011;41154;45.394;5.734;2023-02-01T00:04:49;15.40;;;8.32;;
55288;SDS011;41154;45.394;5.734;2023-02-01T00:07:15;13.50;;;7.38;;
55288;SDS011;41154;45.394;5.734;2023-02-01T00:09:41;14.85;;;7.95;;
55288;SDS011;41154;45.394;5.734;2023-02-01T00:12:06;14.82;;;7.60;;
55288;SDS011;41154;45.394;5.734;2023-02-01T00:14:32;13.50;;;7.72;;
55288;SDS011;41154;45.394;5.734;2023-02-01T00:17:06;18.30;;;6.40;;
55288;SDS011;41154;45.394;5.734;2023-02-01T00:19:32;12.27;;;6.38;;
55288;SDS011;41154;45.394;5.734;2023-02-01T00:21:58;15.50;;;7.35;;
55288;SDS011;41154;45.394;5.734;2023-02-01T00:24:24;15.20;;;6.30;;
55288;SDS011;41154;45.394;5.734;2023-02-01T00:26:50;12.02;;;6.22;;
55288;SDS011;41154;45.394;5.734;2023-02-01T00:29:17;13.27;;;6.45;;
55288;SDS011;41154;45.394;5.734;2023-02-01T00:31:44;13.82;;;7.13;;
55288;SDS011;41154;45.394;5.734;2023-02-01T00:34:14;18.48;;;8.85;;
55288;SDS011;41154;45.394;5.734;2023-02-01T00:36:41;20.15;;;9.65;;
55288;SDS011;41154;45.394;5.734;2023-02-01T00:39:08;14.88;;;8.73;;
55288;SDS011;41154;45.394;5.734;2023-02-01T00:41:35;20.42;;;8.40;;
55288;SDS011;41154;45.394;5.734;2023-02-01T00:44:01;17.15;;;7.53;;
55288;SDS011;41154;45.394;5.734;2023-02-01T00:46:29;17.65;;;8.95;;
55288;SDS011;41154;45.394;5.734;2023-02-01T00:48:55;16.50;;;8.95;;
55288;SDS011;41154;45.394;5.734;2023-02-01T00:51:22;16.15;;;8.85;;
55288;SDS011;41154;45.394;5.734;2023-02-01T00:53:49;17.88;;;9.02;;
55288;SDS011;41154;45.394;5.734;2023-02-01T00:56:15;20.17;;;9.43;;
55288;SDS011;41154;45.394;5.734;2023-02-01T00:58:42;20.35;;;9.35;;
55288;SDS011;41154;45.394;5.734;2023-02-01T01:03:36;15.63;;;8.45;;
55288;SDS011;41154;45.394;5.734;2023-02-01T01:06:05;14.88;;;7.60;;
55288;SDS011;41154;45.394;5.734;2023-02-01T01:08:34;23.80;;;10.13;;
55288;SDS011;41154;45.394;5.734;2023-02-01T01:11:05;18.02;;;8.75;;
55288;SDS011;41154;45.394;5.734;2023-02-01T01:13:35;22.08;;;9.68;;
55288;SDS011;41154;45.394;5.734;2023-02-01T01:16:01;14.48;;;7.32;;
55288;SDS011;41154;45.394;5.734;2023-02-01T01:18:29;17.67;;;7.80;;
55288;SDS011;41154;45.394;5.734;2023-02-01T01:20:56;13.57;;;7.57;;
55288;SDS011;41154;45.394;5.734;2023-02-01T01:23:21;14.98;;;7.28;;
55288;SDS011;41154;45.394;5.734;2023-02-01T01:25:47;18.08;;;6.90;;
55288;SDS011;41154;45.394;5.734;2023-02-01T01:28:13;11.23;;;6.95;;
55288;SDS011;41154;45.394;5.734;2023-02-01T01:30:39;10.93;;;5.10;;
55288;SDS011;41154;45.394;5.734;2023-02-01T01:33:05;10.85;;;6.20;;
55288;SDS011;41154;45.394;5.734;2023-02-01T01:35:30;13.32;;;6.07;;
55288;SDS011;41154;45.394;5.734;2023-02-01T01:37:58;11.05;;;6.32;;
55288;SDS011;41154;45.394;5.734;2023-02-01T01:40:25;10.88;;;5.43;;
55288;SDS011;41154;45.394;5.734;2023-02-01T01:42:52;11.30;;;7.07;;
55288;SDS011;41154;45.394;5.734;2023-02-01T01:45:33;13.23;;;6.25;;
55288;SDS011;41154;45.394;5.734;2023-02-01T01:48:11;9.40;;;5.65;;
55288;SDS011;41154;45.394;5.734;2023-02-01T01:50:50;10.43;;;5.28;;
55288;SDS011;41154;45.394;5.734;2023-02-01T01:53:24;11.20;;;6.00;;
55288;SDS011;41154;45.394;5.734;2023-02-01T01:55:53;15.27;;;7.38;;
55288;SDS011;41154;45.394;5.734;2023-02-01T01:58:22;13.45;;;6.28;;
55288;SDS011;41154;45.394;5.734;2023-02-01T02:00:50;10.80;;;5.53;;
55288;SDS011;41154;45.394;5.734;2023-02-01T02:03:20;11.07;;;6.07;;
55288;SDS011;41154;45.394;5.734;2023-02-01T02:05:59;9.45;;;6.20;;
55288;SDS011;41154;45.394;5.734;2023-02-01T02:08:27;17.08;;;6.60;;
55288;SDS011;41154;45.394;5.734;2023-02-01T02:10:54;13.18;;;7.05;;
55288;SDS011;41154;45.394;5.734;2023-02-01T02:13:27;10.93;;;6.20;;
55288;SDS011;41154;45.394;5.734;2023-02-01T02:16:05;14.40;;;6.73;;
55288;SDS011;41154;45.394;5.734;2023-02-01T02:34:45;13.27;;;7.03;;
55288;SDS011;41154;45.394;5.734;2023-02-01T02:43:09;12.32;;;5.95;;
55288;SDS011;41154;45.394;5.734;2023-02-01T02:46:04;16.95;;;6.03;;
55288;SDS011;41154;45.394;5.734;2023-02-01T02:54:26;8.52;;;5.50;;
55288;SDS011;41154;45.394;5.734;2023-02-01T02:57:15;11.98;;;5.70;;
55288;SDS011;41154;45.394;5.734;2023-02-01T03:00:05;14.10;;;5.60;;
55288;SDS011;41154;45.394;5.734;2023-02-01T03:02:54;11.07;;;6.05;;
55288;SDS011;41154;45.394;5.734;2023-02-01T03:05:40;10.57;;;5.78;;
55288;SDS011;41154;45.394;5.734;2023-02-01T03:08:10;10.13;;;6.53;;
55288;SDS011;41154;45.394;5.734;2023-02-01T03:10:46;13.60;;;6.90;;
55288;SDS011;41154;45.394;5.734;2023-02-01T03:13:38;11.82;;;6.38;;
55288;SDS011;41154;45.394;5.734;2023-02-01T03:16:34;15.48;;;6.53;;
55288;SDS011;41154;45.394;5.734;2023-02-01T03:19:14;12.60;;;6.85;;
55288;SDS011;41154;45.394;5.734;2023-02-01T03:21:52;11.73;;;6.53;;
55288;SDS011;41154;45.394;5.734;2023-02-01T03:24:29;13.20;;;7.13;;
55288;SDS011;41154;45.394;5.734;2023-02-01T03:32:57;11.77;;;6.32;;
55288;SDS011;41154;45.394;5.734;2023-02-01T03:35:32;13.15;;;6.70;;
55288;SDS011;41154;45.394;5.734;2023-02-01T03:40:53;19.75;;;6.63;;
55288;SDS011;41154;45.394;5.734;2023-02-01T03:43:45;13.02;;;6.68;;
55288;SDS011;41154;45.394;5.734;2023-02-01T03:46:52;10.35;;;5.55;;
55288;SDS011;41154;45.394;5.734;2023-02-01T03:49:19;10.60;;;6.00;;
55288;SDS011;41154;45.394;5.734;2023-02-01T03:51:59;12.48;;;6.18;;
55288;SDS011;41154;45.394;5.734;2023-02-01T03:54:27;13.75;;;6.75;;
55288;SDS011;41154;45.394;5.734;2023-02-01T03:56:54;14.23;;;8.10;;
55288;SDS011;41154;45.394;5.734;2023-02-01T03:59:23;12.75;;;7.00;;
55288;SDS011;41154;45.394;5.734;2023-02-01T04:01:49;15.98;;;6.47;;
55288;SDS011;41154;45.394;5.734;2023-02-01T04:04:16;14.00;;;6.95;;
55288;SDS011;41154;45.394;5.734;2023-02-01T04:06:47;11.27;;;6.47;;
55288;SDS011;41154;45.394;5.734;2023-02-01T04:09:14;15.80;;;7.32;;
55288;SDS011;41154;45.394;5.734;2023-02-01T04:11:39;15.90;;;6.63;;
55288;SDS011;41154;45.394;5.734;2023-02-01T04:14:05;13.07;;;6.15;;
55288;SDS011;41154;45.394;5.734;2023-02-01T04:16:31;12.95;;;6.40;;
55288;SDS011;41154;45.394;5.734;2023-02-01T04:18:57;15.25;;;6.93;;
55288;SDS011;41154;45.394;5.734;2023-02-01T04:21:24;11.52;;;6.30;;
55288;SDS011;41154;45.394;5.734;2023-02-01T04:23:51;15.55;;;6.18;;
55288;SDS011;41154;45.394;5.734;2023-02-01T04:26:17;10.48;;;6.40;;
55288;SDS011;41154;45.394;5.734;2023-02-01T04:28:44;11.10;;;6.07;;
55288;SDS011;41154;45.394;5.734;2023-02-01T04:31:13;12.15;;;6.72;;
55288;SDS011;41154;45.394;5.734;2023-02-01T04:33:40;14.82;;;8.02;;
55288;SDS011;41154;45.394;5.734;2023-02-01T04:36:06;13.18;;;7.32;;
55288;SDS011;41154;45.394;5.734;2023-02-01T04:38:32;13.25;;;7.75;;
55288;SDS011;41154;45.394;5.734;2023-02-01T04:40:58;12.43;;;7.07;;
55288;SDS011;41154;45.394;5.734;2023-02-01T04:43:24;13.88;;;7.00;;
55288;SDS011;41154;45.394;5.734;2023-02-01T04:45:50;13.55;;;7.20;;
55288;SDS011;41154;45.394;5.734;2023-02-01T04:48:17;18.83;;;9.77;;
55288;SDS011;41154;45.394;5.734;2023-02-01T04:50:44;18.05;;;9.02;;
55288;SDS011;41154;45.394;5.734;2023-02-01T04:53:13;18.60;;;9.88;;
55288;SDS011;41154;45.394;5.734;2023-02-01T04:55:40;20.58;;;8.75;;
55288;SDS011;41154;45.394;5.734;2023-02-01T04:58:06;19.92;;;8.50;;
55288;SDS011;41154;45.394;5.734;2023-02-01T05:00:32;20.33;;;8.85;;
55288;SDS011;41154;45.394;5.734;2023-02-01T05:02:58;14.88;;;8.20;;
55288;SDS011;41154;45.394;5.734;2023-02-01T05:05:24;16.05;;;7.95;;
55288;SDS011;41154;45.394;5.734;2023-02-01T05:07:49;14.52;;;7.35;;
55288;SDS011;41154;45.394;5.734;2023-02-01T05:10:15;16.58;;;8.52;;
55288;SDS011;41154;45.394;5.734;2023-02-01T05:12:42;11.63;;;6.95;;
55288;SDS011;41154;45.394;5.734;2023-02-01T05:15:28;20.75;;;8.85;;
55288;SDS011;41154;45.394;5.734;2023-02-01T05:17:54;13.93;;;7.20;;
55288;SDS011;41154;45.394;5.734;2023-02-01T05:20:20;13.43;;;7.75;;
55288;SDS011;41154;45.394;5.734;2023-02-01T05:22:46;17.25;;;8.48;;
55288;SDS011;41154;45.394;5.734;2023-02-01T05:25:11;15.05;;;8.15;;
55288;SDS011;41154;45.394;5.734;2023-02-01T05:27:37;12.13;;;7.97;;
55288;SDS011;41154;45.394;5.734;2023-02-01T05:30:04;16.25;;;8.55;;
55288;SDS011;41154;45.394;5.734;2023-02-01T05:32:30;13.55;;;6.57;;
55288;SDS011;41154;45.394;5.734;2023-02-01T05:34:56;13.07;;;7.72;;
55288;SDS011;41154;45.394;5.734;2023-02-01T05:37:22;15.65;;;7.63;;
55288;SDS011;41154;45.394;5.734;2023-02-01T05:39:47;13.43;;;8.23;;
55288;SDS011;41154;45.394;5.734;2023-02-01T05:42:13;14.00;;;7.30;;
55288;SDS011;41154;45.394;5.734;2023-02-01T05:44:39;11.77;;;6.30;;
55288;SDS011;41154;45.394;5.734;2023-02-01T05:47:05;13.43;;;7.32;;
55288;SDS011;41154;45.394;5.734;2023-02-01T05:49:31;15.70;;;7.78;;
55288;SDS011;41154;45.394;5.734;2023-02-01T05:51:57;11.75;;;7.20;;
55288;SDS011;41154;45.394;5.734;2023-02-01T05:54:23;14.38;;;7.15;;
55288;SDS011;41154;45.394;5.734;2023-02-01T05:56:48;12.82;;;6.88;;
55288;SDS011;41154;45.394;5.734;2023-02-01T05:59:14;14.48;;;6.80;;
55288;SDS011;41154;45.394;5.734;2023-02-01T06:01:41;15.38;;;7.43;;
55288;SDS011;41154;45.394;5.734;2023-02-01T06:04:06;11.50;;;6.40;;
55288;SDS011;41154;45.394;5.734;2023-02-01T06:06:32;12.05;;;6.80;;
55288;SDS011;41154;45.394;5.734;2023-02-01T06:08:58;14.20;;;7.28;;
55288;SDS011;41154;45.394;5.734;2023-02-01T06:11:25;14.07;;;7.65;;
55288;SDS011;41154;45.394;5.734;2023-02-01T06:13:51;16.90;;;8.35;;
55288;SDS011;41154;45.394;5.734;2023-02-01T06:16:17;12.70;;;6.65;;
55288;SDS011;41154;45.394;5.734;2023-02-01T06:18:43;20.60;;;9.30;;
55288;SDS011;41154;45.394;5.734;2023-02-01T06:21:08;17.63;;;8.63;;
55288;SDS011;41154;45.394;5.734;2023-02-01T06:23:34;16.05;;;8.00;;
55288;SDS011;41154;45.394;5.734;2023-02-01T06:28:27;12.00;;;7.30;;
55288;SDS011;41154;45.394;5.734;2023-02-01T06:30:53;20.58;;;8.57;;
55288;SDS011;41154;45.394;5.734;2023-02-01T06:33:19;15.40;;;7.70;;
55288;SDS011;41154;45.394;5.734;2023-02-01T06:35:45;15.35;;;7.13;;
55288;SDS011;41154;45.394;5.734;2023-02-01T06:38:12;13.35;;;6.80;;
55288;SDS011;41154;45.394;5.734;2023-02-01T06:40:38;11.73;;;6.85;;
55288;SDS011;41154;45.394;5.734;2023-02-01T06:43:05;13.90;;;6.63;;
55288;SDS011;41154;45.394;5.734;2023-02-01T06:45:30;13.40;;;7.63;;
55288;SDS011;41154;45.394;5.734;2023-02-01T06:47:57;10.38;;;6.03;;
55288;SDS011;41154;45.394;5.734;2023-02-01T06:50:24;13.73;;;6.75;;
55288;SDS011;41154;45.394;5.734;2023-02-01T06:52:50;10.75;;;6.35;;
55288;SDS011;41154;45.394;5.734;2023-02-01T06:55:15;10.38;;;7.28;;
55288;SDS011;41154;45.394;5.734;2023-02-01T06:57:41;14.10;;;7.03;;
55288;SDS011;41154;45.394;5.734;2023-02-01T07:00:07;11.88;;;5.80;;
55288;SDS011;41154;45.394;5.734;2023-02-01T07:02:33;8.68;;;5.10;;
55288;SDS011;41154;45.394;5.734;2023-02-01T07:04:59;11.82;;;5.93;;
55288;SDS011;41154;45.394;5.734;2023-02-01T07:07:24;8.90;;;5.18;;
55288;SDS011;41154;45.394;5.734;2023-02-01T07:09:50;9.45;;;4.95;;
55288;SDS011;41154;45.394;5.734;2023-02-01T07:12:16;11.48;;;5.90;;
55288;SDS011;41154;45.394;5.734;2023-02-01T07:14:41;11.77;;;5.45;;
55288;SDS011;41154;45.394;5.734;2023-02-01T07:17:07;12.50;;;5.55;;
55288;SDS011;41154;45.394;5.734;2023-02-01T07:19:33;12.60;;;6.88;;
55288;SDS011;41154;45.394;5.734;2023-02-01T07:21:58;10.48;;;5.53;;
55288;SDS011;41154;45.394;5.734;2023-02-01T07:24:24;12.80;;;7.13;;
55288;SDS011;41154;45.394;5.734;2023-02-01T07:26:50;12.02;;;6.80;;
55288;SDS011;41154;45.394;5.734;2023-02-01T07:29:17;8.30;;;5.50;;
55288;SDS011;41154;45.394;5.734;2023-02-01T07:31:44;12.30;;;6.63;;
55288;SDS011;41154;45.394;5.734;2023-02-01T07:34:10;10.25;;;5.15;;
55288;SDS011;41154;45.394;5.734;2023-02-01T07:36:35;11.68;;;5.78;;
55288;SDS011;41154;45.394;5.734;2023-02-01T07:39:04;10.07;;;6.05;;
55288;SDS011;41154;45.394;5.734;2023-02-01T07:41:30;11.40;;;6.18;;
55288;SDS011;41154;45.394;5.734;2023-02-01T07:43:56;10.65;;;5.05;;
55288;SDS011;41154;45.394;5.734;2023-02-01T07:46:22;9.85;;;5.07;;
55288;SDS011;41154;45.394;5.734;2023-02-01T07:48:48;12.23;;;5.00;;
55288;SDS011;41154;45.394;5.734;2023-02-01T07:51:14;10.98;;;5.32;;
55288;SDS011;41154;45.394;5.734;2023-02-01T07:53:41;9.05;;;5.28;;
55288;SDS011;41154;45.394;5.734;2023-02-01T07:56:12;10.07;;;3.88;;
55288;SDS011;41154;45.394;5.734;2023-02-01T07:58:40;7.03;;;4.20;;
55288;SDS011;41154;45.394;5.734;2023-02-01T08:01:10;8.60;;;5.05;;
55288;SDS011;41154;45.394;5.734;2023-02-01T08:06:22;13.10;;;5.13;;
55288;SDS011;41154;45.394;5.734;2023-02-01T08:08:49;7.82;;;4.20;;
55288;SDS011;41154;45.394;5.734;2023-02-01T08:11:15;10.57;;;3.97;;
55288;SDS011;41154;45.394;5.734;2023-02-01T08:13:41;6.68;;;3.65;;
55288;SDS011;41154;45.394;5.734;2023-02-01T08:16:08;5.57;;;3.35;;
55288;SDS011;41154;45.394;5.734;2023-02-01T08:18:35;4.63;;;2.10;;
55288;SDS011;41154;45.394;5.734;2023-02-01T08:21:06;4.85;;;2.55;;
55288;SDS011;41154;45.394;5.734;2023-02-01T08:23:34;5.40;;;2.25;;
55288;SDS011;41154;45.394;5.734;2023-02-01T08:26:34;8.98;;;3.10;;
55288;SDS011;41154;45.394;5.734;2023-02-01T08:28:54;6.07;;;3.22;;
55288;SDS011;41154;45.394;5.734;2023-02-01T08:31:21;10.43;;;2.95;;
55288;SDS011;41154;45.394;5.734;2023-02-01T08:33:49;7.07;;;2.92;;
55288;SDS011;41154;45.394;5.734;2023-02-01T08:36:16;7.13;;;2.67;;
55288;SDS011;41154;45.394;5.734;2023-02-01T08:38:42;5.70;;;2.70;;
55288;SDS011;41154;45.394;5.734;2023-02-01T08:41:10;6.70;;;2.88;;
55288;SDS011;41154;45.394;5.734;2023-02-01T08:43:41;5.15;;;3.00;;
55288;SDS011;41154;45.394;5.734;2023-02-01T08:46:07;6.53;;;2.72;;
55288;SDS011;41154;45.394;5.734;2023-02-01T08:48:33;5.70;;;2.50;;
55288;SDS011;41154;45.394;5.734;2023-02-01T08:51:07;7.13;;;3.78;;
55288;SDS011;41154;45.394;5.734;2023-02-01T08:53:35;12.27;;;5.72;;
55288;SDS011;41154;45.394;5.734;2023-02-01T08:56:01;8.70;;;5.05;;
55288;SDS011;41154;45.394;5.734;2023-02-01T08:58:27;25.98;;;12.40;;
55288;SDS011;41154;45.394;5.734;2023-02-01T09:00:53;13.98;;;6.93;;
55288;SDS011;41154;45.394;5.734;2023-02-01T09:03:18;10.13;;;4.70;;
55288;SDS011;41154;45.394;5.734;2023-02-01T09:05:44;9.88;;;4.18;;
55288;SDS011;41154;45.394;5.734;2023-02-01T09:08:10;6.60;;;4.00;;
55288;SDS011;41154;45.394;5.734;2023-02-01T09:10:40;5.70;;;2.78;;
55288;SDS011;41154;45.394;5.734;2023-02-01T09:13:07;4.68;;;2.55;;
55288;SDS011;41154;45.394;5.734;2023-02-01T09:15:34;8.45;;;2.58;;
55288;SDS011;41154;45.394;5.734;2023-02-01T09:18:00;3.10;;;2.10;;
55288;SDS011;41154;45.394;5.734;2023-02-01T09:20:26;3.60;;;2.30;;
55288;SDS011;41154;45.394;5.734;2023-02-01T09:22:52;4.30;;;1.80;;
55288;SDS011;41154;45.394;5.734;2023-02-01T09:25:19;5.85;;;1.92;;
55288;SDS011;41154;45.394;5.734;2023-02-01T09:27:45;3.75;;;1.70;;
55288;SDS011;41154;45.394;5.734;2023-02-01T09:30:11;3.28;;;1.38;;
55288;SDS011;41154;45.394;5.734;2023-02-01T09:32:37;4.05;;;1.63;;
55288;SDS011;41154;45.394;5.734;2023-02-01T09:35:02;5.57;;;1.63;;
55288;SDS011;41154;45.394;5.734;2023-02-01T09:37:28;2.35;;;1.50;;
55288;SDS011;41154;45.394;5.734;2023-02-01T09:39:54;2.92;;;1.17;;
55288;SDS011;41154;45.394;5.734;2023-02-01T09:47:51;2.97;;;1.10;;
55288;SDS011;41154;45.394;5.734;2023-02-01T09:50:21;2.60;;;1.40;;
55288;SDS011;41154;45.394;5.734;2023-02-01T09:52:58;3.05;;;0.95;;
55288;SDS011;41154;45.394;5.734;2023-02-01T09:55:39;2.70;;;1.42;;
55288;SDS011;41154;45.394;5.734;2023-02-01T09:58:46;1.90;;;1.33;;
55288;SDS011;41154;45.394;5.734;2023-02-01T10:01:15;2.03;;;1.38;;
55288;SDS011;41154;45.394;5.734;2023-02-01T10:03:44;3.95;;;1.65;;
55288;SDS011;41154;45.394;5.734;2023-02-01T10:09:14;4.13;;;1.63;;
55288;SDS011;41154;45.394;5.734;2023-02-01T10:14:54;2.25;;;1.00;;
55288;SDS011;41154;45.394;5.734;2023-02-01T10:20:23;1.40;;;1.00;;
55288;SDS011;41154;45.394;5.734;2023-02-01T10:26:12;1.10;;;0.90;;
55288;SDS011;41154;45.394;5.734;2023-02-01T10:28:40;1.58;;;0.98;;
55288;SDS011;41154;45.394;5.734;2023-02-01T10:31:09;2.50;;;1.13;;
55288;SDS011;41154;45.394;5.734;2023-02-01T10:33:42;1.83;;;1.02;;
55288;SDS011;41154;45.394;5.734;2023-02-01T10:36:21;2.15;;;1.00;;
55288;SDS011;41154;45.394;5.734;2023-02-01T10:38:53;2.33;;;1.20;;
55288;SDS011;41154;45.394;5.734;2023-02-01T10:41:22;3.03;;;1.48;;
55288;SDS011;41154;45.394;5.734;2023-02-01T10:43:53;0.75;;;0.57;;
55288;SDS011;41154;45.394;5.734;2023-02-01T10:46:22;1.80;;;1.15;;
55288;SDS011;41154;45.394;5.734;2023-02-01T10:48:49;1.20;;;0.60;;
55288;SDS011;41154;45.394;5.734;2023-02-01T10:51:22;0.93;;;0.65;;
55288;SDS011;41154;45.394;5.734;2023-02-01T10:53:53;1.60;;;0.88;;
55288;SDS011;41154;45.394;5.734;2023-02-01T10:56:24;0.80;;;0.80;;
55288;SDS011;41154;45.394;5.734;2023-02-01T10:58:58;1.20;;;0.73;;
55288;SDS011;41154;45.394;5.734;2023-02-01T11:04:06;0.80;;;0.52;;
55288;SDS011;41154;45.394;5.734;2023-02-01T11:06:40;1.13;;;0.63;;
55288;SDS011;41154;45.394;5.734;2023-02-01T11:11:34;1.05;;;0.68;;
55288;SDS011;41154;45.394;5.734;2023-02-01T11:16:53;0.98;;;0.68;;
55288;SDS011;41154;45.394;5.734;2023-02-01T11:19:23;1.02;;;0.55;;
55288;SDS011;41154;45.394;5.734;2023-02-01T11:21:53;1.13;;;0.65;;
55288;SDS011;41154;45.394;5.734;2023-02-01T11:24:27;0.70;;;0.60;;
55288;SDS011;41154;45.394;5.734;2023-02-01T11:26:59;0.98;;;0.63;;
55288;SDS011;41154;45.394;5.734;2023-02-01T11:29:29;1.63;;;0.80;;
55288;SDS011;41154;45.394;5.734;2023-02-01T11:32:01;0.70;;;0.70;;
55288;SDS011;41154;45.394;5.734;2023-02-01T11:34:36;1.60;;;0.90;;
55288;SDS011;41154;45.394;5.734;2023-02-01T11:37:04;4.32;;;0.98;;
55288;SDS011;41154;45.394;5.734;2023-02-01T11:39:42;1.20;;;0.88;;
55288;SDS011;41154;45.394;5.734;2023-02-01T11:42:15;1.40;;;0.60;;
55288;SDS011;41154;45.394;5.734;2023-02-01T11:44:43;1.25;;;0.68;;
55288;SDS011;41154;45.394;5.734;2023-02-01T11:49:59;2.60;;;0.77;;
55288;SDS011;41154;45.394;5.734;2023-02-01T11:52:34;1.43;;;0.87;;
55288;SDS011;41154;45.394;5.734;2023-02-01T11:55:50;1.70;;;0.90;;
55288;SDS011;41154;45.394;5.734;2023-02-01T11:58:32;0.80;;;0.70;;
55288;SDS011;41154;45.394;5.734;2023-02-01T12:06:27;1.20;;;0.93;;
55288;SDS011;41154;45.394;5.734;2023-02-01T12:09:20;1.35;;;0.88;;
55288;SDS011;41154;45.394;5.734;2023-02-01T12:17:44;1.27;;;0.90;;
55288;SDS011;41154;45.394;5.734;2023-02-01T12:42:40;3.33;;;1.50;;
55288;SDS011;41154;45.394;5.734;2023-02-01T12:47:50;3.15;;;1.42;;
55288;SDS011;41154;45.394;5.734;2023-02-01T12:53:12;3.17;;;1.77;;
55288;SDS011;41154;45.394;5.734;2023-02-01T12:55:49;2.03;;;1.48;;
55288;SDS011;41154;45.394;5.734;2023-02-01T12:58:22;2.63;;;1.55;;
55288;SDS011;41154;45.394;5.734;2023-02-01T13:06:27;3.67;;;1.77;;
55288;SDS011;41154;45.394;5.734;2023-02-01T13:12:05;3.35;;;1.90;;
55288;SDS011;41154;45.394;5.734;2023-02-01T13:14:46;2.95;;;1.75;;
55288;SDS011;41154;45.394;5.734;2023-02-01T13:17:25;1.20;;;1.10;;
55288;SDS011;41154;45.394;5.734;2023-02-01T13:19:57;2.20;;;1.25;;
55288;SDS011;41154;45.394;5.734;2023-02-01T13:27:35;3.03;;;1.67;;
55288;SDS011;41154;45.394;5.734;2023-02-01T13:30:15;5.93;;;1.80;;
55288;SDS011;41154;45.394;5.734;2023-02-01T13:35:39;4.38;;;1.83;;
55288;SDS011;41154;45.394;5.734;2023-02-01T13:43:50;3.60;;;2.10;;
55288;SDS011;41154;45.394;5.734;2023-02-01T13:46:18;2.58;;;1.42;;
55288;SDS011;41154;45.394;5.734;2023-02-01T13:51:13;3.03;;;1.95;;
55288;SDS011;41154;45.394;5.734;2023-02-01T13:54:03;2.03;;;1.50;;
55288;SDS011;41154;45.394;5.734;2023-02-01T13:56:32;3.67;;;1.95;;
55288;SDS011;41154;45.394;5.734;2023-02-01T14:05:02;2.45;;;1.70;;
55288;SDS011;41154;45.394;5.734;2023-02-01T14:07:29;2.65;;;1.80;;
55288;SDS011;41154;45.394;5.734;2023-02-01T14:09:55;2.80;;;2.00;;
55288;SDS011;41154;45.394;5.734;2023-02-01T14:15:17;6.43;;;3.90;;
55288;SDS011;41154;45.394;5.734;2023-02-01T14:17:47;4.95;;;3.13;;
55288;SDS011;41154;45.394;5.734;2023-02-01T14:23:11;5.85;;;3.05;;
55288;SDS011;41154;45.394;5.734;2023-02-01T14:25:40;3.35;;;2.33;;
55288;SDS011;41154;45.394;5.734;2023-02-01T14:28:10;3.75;;;2.60;;
55288;SDS011;41154;45.394;5.734;2023-02-01T14:30:51;3.72;;;2.20;;
55288;SDS011;41154;45.394;5.734;2023-02-01T14:33:19;3.40;;;2.25;;
55288;SDS011;41154;45.394;5.734;2023-02-01T14:35:59;5.78;;;2.83;;
55288;SDS011;41154;45.394;5.734;2023-02-01T14:38:29;6.30;;;3.00;;
55288;SDS011;41154;45.394;5.734;2023-02-01T14:41:10;4.72;;;2.80;;
55288;SDS011;41154;45.394;5.734;2023-02-01T14:44:42;12.13;;;3.90;;
55288;SDS011;41154;45.394;5.734;2023-02-01T14:47:27;4.95;;;2.28;;
55288;SDS011;41154;45.394;5.734;2023-02-01T14:49:47;3.80;;;2.95;;
55288;SDS011;41154;45.394;5.734;2023-02-01T14:52:20;4.47;;;3.08;;
55288;SDS011;41154;45.394;5.734;2023-02-01T14:54:54;6.32;;;4.32;;
55288;SDS011;41154;45.394;5.734;2023-02-01T14:57:24;4.07;;;3.05;;
55288;SDS011;41154;45.394;5.734;2023-02-01T14:59:53;10.00;;;4.25;;
55288;SDS011;41154;45.394;5.734;2023-02-01T15:02:30;4.85;;;3.05;;
55288;SDS011;41154;45.394;5.734;2023-02-01T15:04:59;6.93;;;3.30;;
55288;SDS011;41154;45.394;5.734;2023-02-01T15:07:24;4.03;;;2.78;;
55288;SDS011;41154;45.394;5.734;2023-02-01T15:09:53;3.95;;;2.55;;
55288;SDS011;41154;45.394;5.734;2023-02-01T15:12:25;5.65;;;2.78;;
55288;SDS011;41154;45.394;5.734;2023-02-01T15:17:55;4.57;;;2.97;;
55288;SDS011;41154;45.394;5.734;2023-02-01T15:20:24;6.50;;;2.95;;
55288;SDS011;41154;45.394;5.734;2023-02-01T15:25:37;4.65;;;3.00;;
55288;SDS011;41154;45.394;5.734;2023-02-01T15:28:04;10.55;;;5.70;;
55288;SDS011;41154;45.394;5.734;2023-02-01T15:30:32;8.55;;;5.00;;
55288;SDS011;41154;45.394;5.734;2023-02-01T15:33:07;7.53;;;3.20;;
55288;SDS011;41154;45.394;5.734;2023-02-01T15:35:34;4.80;;;3.78;;
55288;SDS011;41154;45.394;5.734;2023-02-01T15:40:55;8.82;;;3.97;;
55288;SDS011;41154;45.394;5.734;2023-02-01T15:43:24;11.38;;;6.13;;
55288;SDS011;41154;45.394;5.734;2023-02-01T15:45:50;3.03;;;2.42;;
55288;SDS011;41154;45.394;5.734;2023-02-01T15:48:28;6.07;;;2.65;;
55288;SDS011;41154;45.394;5.734;2023-02-01T15:50:59;3.50;;;2.50;;
55288;SDS011;41154;45.394;5.734;2023-02-01T15:53:26;3.40;;;2.45;;
55288;SDS011;41154;45.394;5.734;2023-02-01T15:55:57;4.13;;;2.70;;
55288;SDS011;41154;45.394;5.734;2023-02-01T15:58:25;6.32;;;2.95;;
55288;SDS011;41154;45.394;5.734;2023-02-01T16:00:56;3.80;;;2.33;;
55288;SDS011;41154;45.394;5.734;2023-02-01T16:03:26;6.13;;;3.22;;
55288;SDS011;41154;45.394;5.734;2023-02-01T16:06:04;12.25;;;6.97;;
55288;SDS011;41154;45.394;5.734;2023-02-01T16:08:32;3.90;;;2.55;;
55288;SDS011;41154;45.394;5.734;2023-02-01T16:11:01;5.80;;;2.72;;
55288;SDS011;41154;45.394;5.734;2023-02-01T16:13:48;4.45;;;2.53;;
55288;SDS011;41154;45.394;5.734;2023-02-01T16:16:14;4.55;;;2.60;;
55288;SDS011;41154;45.394;5.734;2023-02-01T16:18:40;10.75;;;6.97;;
55288;SDS011;41154;45.394;5.734;2023-02-01T16:21:06;4.15;;;2.58;;
55288;SDS011;41154;45.394;5.734;2023-02-01T16:23:35;5.28;;;2.75;;
55288;SDS011;41154;45.394;5.734;2023-02-01T16:26:02;5.70;;;2.63;;
55288;SDS011;41154;45.394;5.734;2023-02-01T16:28:28;2.85;;;2.33;;
55288;SDS011;41154;45.394;5.734;2023-02-01T16:30:54;6.15;;;3.10;;
55288;SDS011;41154;45.394;5.734;2023-02-01T16:33:20;4.70;;;2.53;;
55288;SDS011;41154;45.394;5.734;2023-02-01T16:35:47;4.70;;;2.53;;
55288;SDS011;41154;45.394;5.734;2023-02-01T16:38:14;3.30;;;2.17;;
55288;SDS011;41154;45.394;5.734;2023-02-01T16:40:44;4.03;;;2.58;;
55288;SDS011;41154;45.394;5.734;2023-02-01T16:43:12;4.95;;;2.20;;
55288;SDS011;41154;45.394;5.734;2023-02-01T16:45:39;3.83;;;2.55;;
55288;SDS011;41154;45.394;5.734;2023-02-01T16:48:05;5.60;;;2.67;;
55288;SDS011;41154;45.394;5.734;2023-02-01T16:50:32;6.22;;;2.78;;
55288;SDS011;41154;45.394;5.734;2023-02-01T16:52:58;5.63;;;2.72;;
55288;SDS011;41154;45.394;5.734;2023-02-01T16:55:26;5.72;;;2.85;;
55288;SDS011;41154;45.394;5.734;2023-02-01T16:57:52;4.30;;;2.42;;
55288;SDS011;41154;45.394;5.734;2023-02-01T17:00:18;3.70;;;2.38;;
55288;SDS011;41154;45.394;5.734;2023-02-01T17:02:45;5.57;;;2.78;;
55288;SDS011;41154;45.394;5.734;2023-02-01T17:05:11;4.63;;;2.25;;
55288;SDS011;41154;45.394;5.734;2023-02-01T17:07:37;5.32;;;2.47;;
55288;SDS011;41154;45.394;5.734;2023-02-01T17:10:05;6.40;;;2.97;;
55288;SDS011;41154;45.394;5.734;2023-02-01T17:12:42;4.10;;;2.45;;
55288;SDS011;41154;45.394;5.734;2023-02-01T17:15:08;3.78;;;2.42;;
55288;SDS011;41154;45.394;5.734;2023-02-01T17:17:36;7.20;;;2.63;;
55288;SDS011;41154;45.394;5.734;2023-02-01T17:20:04;6.65;;;2.50;;
55288;SDS011;41154;45.394;5.734;2023-02-01T17:22:32;4.95;;;2.50;;
55288;SDS011;41154;45.394;5.734;2023-02-01T17:24:58;4.70;;;2.53;;
55288;SDS011;41154;45.394;5.734;2023-02-01T17:27:23;5.13;;;2.30;;
55288;SDS011;41154;45.394;5.734;2023-02-01T17:29:49;5.43;;;2.20;;
55288;SDS011;41154;45.394;5.734;2023-02-01T17:32:19;6.68;;;2.28;;
55288;SDS011;41154;45.394;5.734;2023-02-01T17:34:48;5.07;;;1.95;;